Time;durP1;ratioP1;P1;durP2;ratioP2;P2;SDS_P1;SDS_P2;PMS_P1;PMS_P2;Temp;Humidity;BMP_temperature;BMP_pressure;BME280_temperature;BME280_humidity;BME280_pressure;Samples;Min_cycle;Max_cycle;Signal;HPM_P1;HPM_P2
2021/04/17 00:01:21;;;;;;;15.20;4.35;;;;;;;;;;5116165;28;20024;-56
2021/04/17 00:03:48;;;;;;;7.68;3.53;;;;;;;;;;5116110;28;20027;-56
2021/04/17 00:06:14;;;;;;;11.82;4.05;;;;;;;;;;5116050;28;20031;-56
2021/04/17 00:08:41;;;;;;;7.68;3.97;;;;;;;;;;5097993;28;20055;-56
2021/04/17 00:11:08;;;;;;;11.30;3.80;;;;;;;;;;5115888;28;20498;-56
2021/04/17 00:13:35;;;;;;;5.80;3.50;;;;;;;;;;5115862;28;20032;-56
2021/04/17 00:16:02;;;;;;;12.63;3.30;;;;;;;;;;5115990;28;20085;-56
2021/04/17 00:18:28;;;;;;;14.13;4.78;;;;;;;;;;5115918;28;20501;-56
2021/04/17 00:20:55;;;;;;;6.40;3.47;;;;;;;;;;5115859;28;20034;-56
2021/04/17 00:23:22;;;;;;;9.88;3.50;;;;;;;;;;5115736;28;20394;-56
2021/04/17 00:25:49;;;;;;;7.43;3.42;;;;;;;;;;5115762;28;20038;-56
2021/04/17 00:28:16;;;;;;;6.65;3.78;;;;;;;;;;5115645;28;20024;-56
2021/04/17 00:30:42;;;;;;;7.07;3.85;;;;;;;;;;5115645;28;20024;-56
2021/04/17 00:33:09;;;;;;;10.18;3.78;;;;;;;;;;5115411;28;20506;-56
2021/04/17 00:35:36;;;;;;;11.90;4.00;;;;;;;;;;5115487;28;20469;-56
2021/04/17 00:38:03;;;;;;;7.93;3.57;;;;;;;;;;5114347;28;20100;-56
2021/04/17 00:40:30;;;;;;;6.70;3.43;;;;;;;;;;5115824;28;20027;-56
2021/04/17 00:42:57;;;;;;;6.47;2.73;;;;;;;;;;5115312;28;20027;-56
2021/04/17 00:45:24;;;;;;;8.13;3.57;;;;;;;;;;5115385;28;20053;-56
2021/04/17 00:47:51;;;;;;;7.63;3.93;;;;;;;;;;5115233;28;20034;-55
2021/04/17 00:50:17;;;;;;;11.27;3.73;;;;;;;;;;5115321;28;20433;-56
2021/04/17 00:52:44;;;;;;;8.57;3.47;;;;;;;;;;5115211;28;20039;-56
2021/04/17 00:55:12;;;;;;;7.13;3.37;;;;;;;;;;5115141;28;20094;-55
2021/04/17 00:57:39;;;;;;;7.87;3.40;;;;;;;;;;5114746;27;20510;-56
2021/04/17 01:00:07;;;;;;;16.93;3.70;;;;;;;;;;5114912;28;20020;-56
2021/04/17 01:02:36;;;;;;;5.00;3.10;;;;;;;;;;5114894;28;20410;-56
2021/04/17 01:05:04;;;;;;;5.47;3.03;;;;;;;;;;5115040;28;20073;-55
2021/04/17 01:07:35;;;;;;;8.07;3.50;;;;;;;;;;5114927;28;20110;-56
2021/04/17 01:10:07;;;;;;;8.03;3.40;;;;;;;;;;5114937;28;20032;-55
2021/04/17 01:12:35;;;;;;;8.70;3.70;;;;;;;;;;5114614;28;20050;-56
2021/04/17 01:15:05;;;;;;;7.50;3.17;;;;;;;;;;5114796;28;20038;-56
2021/04/17 01:17:32;;;;;;;5.93;3.63;;;;;;;;;;5114928;28;20085;-56
2021/04/17 01:19:59;;;;;;;6.50;3.33;;;;;;;;;;5114661;28;20517;-56
2021/04/17 01:22:26;;;;;;;5.07;3.40;;;;;;;;;;5114612;28;20364;-57
2021/04/17 01:25:19;;;;;;;6.83;3.77;;;;;;;;;;5114556;28;20022;-56
2021/04/17 01:27:46;;;;;;;6.60;3.33;;;;;;;;;;5096076;28;20044;-56
2021/04/17 01:30:13;;;;;;;7.63;3.70;;;;;;;;;;5114380;28;20107;-56
2021/04/17 01:32:40;;;;;;;7.27;3.90;;;;;;;;;;5114251;28;20063;-56
2021/04/17 01:35:08;;;;;;;4.97;3.43;;;;;;;;;;5114345;28;20031;-56
2021/04/17 01:37:59;;;;;;;6.03;3.50;;;;;;;;;;5114368;28;20032;-56
2021/04/17 01:40:28;;;;;;;14.93;4.03;;;;;;;;;;5114236;28;20470;-56
2021/04/17 01:42:54;;;;;;;6.73;3.37;;;;;;;;;;5114156;28;20065;-56
2021/04/17 01:45:24;;;;;;;12.30;3.63;;;;;;;;;;5114262;28;20023;-56
2021/04/17 01:47:53;;;;;;;12.53;3.77;;;;;;;;;;5095622;28;20024;-56
2021/04/17 01:50:20;;;;;;;16.27;3.80;;;;;;;;;;5113982;28;20474;-56
2021/04/17 01:52:48;;;;;;;12.97;3.70;;;;;;;;;;5113863;28;20035;-56
2021/04/17 01:55:16;;;;;;;6.07;2.80;;;;;;;;;;5113857;28;20027;-56
2021/04/17 01:57:43;;;;;;;6.80;3.10;;;;;;;;;;5113539;27;20052;-56
2021/04/17 02:00:10;;;;;;;6.03;3.80;;;;;;;;;;5113867;28;20016;-56
2021/04/17 02:02:37;;;;;;;4.83;3.40;;;;;;;;;;5113762;28;20390;-56
2021/04/17 02:05:04;;;;;;;5.93;2.90;;;;;;;;;;5113945;28;20024;-56
2021/04/17 02:07:31;;;;;;;6.80;2.70;;;;;;;;;;5113807;28;20117;-56
2021/04/17 02:09:57;;;;;;;7.93;3.10;;;;;;;;;;5113803;28;20063;-56
2021/04/17 02:12:24;;;;;;;7.53;3.23;;;;;;;;;;5113487;28;20036;-56
2021/04/17 02:14:51;;;;;;;9.73;3.40;;;;;;;;;;5113963;28;20107;-56
2021/04/17 02:17:24;;;;;;;6.77;3.50;;;;;;;;;;5113584;28;20119;-55
2021/04/17 02:20:08;;;;;;;6.63;3.17;;;;;;;;;;5113671;28;20024;-55
2021/04/17 02:22:36;;;;;;;5.72;3.08;;;;;;;;;;5113468;28;20027;-55
2021/04/17 02:25:04;;;;;;;6.60;3.50;;;;;;;;;;5113488;28;20027;-55
2021/04/17 02:27:30;;;;;;;5.70;2.60;;;;;;;;;;5113424;28;20027;-55
2021/04/17 02:29:57;;;;;;;5.77;3.20;;;;;;;;;;5113522;28;20413;-55
2021/04/17 02:32:25;;;;;;;7.43;3.10;;;;;;;;;;5113281;28;20118;-55
2021/04/17 02:34:52;;;;;;;5.87;3.13;;;;;;;;;;5113360;28;20023;-55
2021/04/17 02:37:19;;;;;;;6.57;3.20;;;;;;;;;;5113370;28;20019;-55
2021/04/17 02:39:46;;;;;;;8.07;3.03;;;;;;;;;;5113330;28;20081;-55
2021/04/17 02:42:13;;;;;;;6.63;2.73;;;;;;;;;;5113321;28;20028;-55
2021/04/17 02:44:40;;;;;;;9.00;2.90;;;;;;;;;;5113384;28;20019;-55
2021/04/17 02:47:07;;;;;;;7.03;3.40;;;;;;;;;;5113243;28;20024;-55
2021/04/17 02:49:34;;;;;;;7.07;3.30;;;;;;;;;;5113225;28;20102;-55
2021/04/17 02:52:01;;;;;;;6.73;3.00;;;;;;;;;;5113014;28;20019;-55
2021/04/17 02:54:28;;;;;;;5.03;2.67;;;;;;;;;;5113175;28;20091;-55
2021/04/17 02:57:08;;;;;;;6.13;2.93;;;;;;;;;;5112556;28;20066;-55
2021/04/17 02:59:34;;;;;;;9.17;3.60;;;;;;;;;;5113138;28;20046;-55
2021/04/17 03:02:01;;;;;;;6.77;3.00;;;;;;;;;;5117043;28;20031;-55
2021/04/17 03:04:28;;;;;;;8.63;3.17;;;;;;;;;;5117328;28;20165;-55
2021/04/17 03:06:55;;;;;;;6.30;2.67;;;;;;;;;;5117255;28;20031;-55
2021/04/17 03:09:21;;;;;;;8.67;3.63;;;;;;;;;;5117592;28;20098;-55
2021/04/17 03:11:48;;;;;;;8.53;3.37;;;;;;;;;;5117038;28;20035;-55
2021/04/17 03:14:15;;;;;;;10.33;3.37;;;;;;;;;;5117203;28;20098;-55
2021/04/17 03:16:42;;;;;;;9.73;3.00;;;;;;;;;;5117117;28;20039;-55
2021/04/17 03:19:09;;;;;;;6.20;3.40;;;;;;;;;;5117012;28;20027;-55
2021/04/17 03:21:36;;;;;;;6.83;3.23;;;;;;;;;;5116910;28;20019;-55
2021/04/17 03:24:03;;;;;;;6.10;3.13;;;;;;;;;;5117043;28;20052;-55
2021/04/17 03:26:29;;;;;;;5.47;3.07;;;;;;;;;;5117147;28;20063;-55
2021/04/17 03:28:56;;;;;;;7.00;2.87;;;;;;;;;;5116846;28;20036;-55
2021/04/17 03:31:23;;;;;;;4.77;2.57;;;;;;;;;;5116608;28;20137;-55
2021/04/17 03:33:50;;;;;;;8.90;3.20;;;;;;;;;;5116802;28;20023;-55
2021/04/17 03:36:17;;;;;;;11.83;3.43;;;;;;;;;;5116759;28;20019;-55
2021/04/17 03:38:43;;;;;;;5.30;2.70;;;;;;;;;;5116916;28;20020;-57
2021/04/17 03:41:10;;;;;;;6.83;3.17;;;;;;;;;;5116700;28;20020;-55
2021/04/17 03:43:37;;;;;;;9.10;3.50;;;;;;;;;;5116552;28;20074;-55
2021/04/17 03:46:04;;;;;;;7.07;3.40;;;;;;;;;;5116536;28;20020;-55
2021/04/17 03:48:31;;;;;;;5.50;3.20;;;;;;;;;;5116443;28;20023;-55
2021/04/17 03:50:58;;;;;;;5.70;3.10;;;;;;;;;;5116458;28;20024;-55
2021/04/17 03:53:24;;;;;;;6.83;3.30;;;;;;;;;;5116323;28;20038;-55
2021/04/17 03:55:51;;;;;;;10.83;2.77;;;;;;;;;;5116338;28;20047;-55
2021/04/17 03:58:18;;;;;;;8.57;2.73;;;;;;;;;;5115758;27;20514;-55
2021/04/17 04:00:45;;;;;;;8.03;2.63;;;;;;;;;;5116304;28;20424;-55
2021/04/17 04:03:11;;;;;;;13.97;3.10;;;;;;;;;;5116098;28;20027;-57
2021/04/17 04:05:38;;;;;;;10.43;3.27;;;;;;;;;;5116233;28;20019;-55
2021/04/17 04:08:05;;;;;;;7.70;3.30;;;;;;;;;;5116086;28;20081;-55
2021/04/17 04:10:32;;;;;;;7.87;3.30;;;;;;;;;;5116079;28;20035;-55
2021/04/17 04:12:59;;;;;;;8.83;3.07;;;;;;;;;;5115593;28;20051;-55
2021/04/17 04:15:26;;;;;;;7.10;2.90;;;;;;;;;;5115817;28;20383;-55
2021/04/17 04:17:52;;;;;;;10.63;3.10;;;;;;;;;;5115956;28;20032;-55
2021/04/17 04:20:19;;;;;;;5.70;3.00;;;;;;;;;;5115788;28;20035;-55
2021/04/17 04:22:46;;;;;;;5.10;3.23;;;;;;;;;;5115720;28;20027;-55
2021/04/17 04:25:13;;;;;;;5.97;3.73;;;;;;;;;;5115853;28;20034;-55
2021/04/17 04:27:40;;;;;;;8.50;2.93;;;;;;;;;;5115651;28;20494;-55
2021/04/17 04:30:08;;;;;;;6.93;2.90;;;;;;;;;;5115748;28;20100;-55
2021/04/17 04:32:35;;;;;;;5.60;2.77;;;;;;;;;;5115482;28;20043;-56
2021/04/17 04:35:02;;;;;;;5.00;2.80;;;;;;;;;;5115649;28;20019;-56
2021/04/17 04:37:29;;;;;;;7.20;4.07;;;;;;;;;;5115613;28;20414;-56
2021/04/17 04:39:56;;;;;;;6.63;3.93;;;;;;;;;;5115426;28;20030;-56
2021/04/17 04:42:22;;;;;;;13.93;4.63;;;;;;;;;;5115409;28;20035;-56
2021/04/17 04:44:49;;;;;;;5.20;3.30;;;;;;;;;;5115458;28;20019;-56
2021/04/17 04:47:16;;;;;;;7.17;3.63;;;;;;;;;;5115345;28;20032;-56
2021/04/17 04:49:43;;;;;;;8.47;3.50;;;;;;;;;;5115276;28;20092;-56
2021/04/17 04:52:10;;;;;;;8.43;3.23;;;;;;;;;;5115115;28;20114;-56
2021/04/17 04:54:37;;;;;;;5.67;3.27;;;;;;;;;;5115236;28;20023;-56
2021/04/17 04:57:04;;;;;;;8.17;4.60;;;;;;;;;;5114666;27;20367;-56
2021/04/17 04:59:30;;;;;;;7.37;3.83;;;;;;;;;;5115229;28;20047;-56
2021/04/17 05:01:57;;;;;;;5.20;3.57;;;;;;;;;;5115059;28;20091;-56
2021/04/17 05:04:27;;;;;;;8.97;3.33;;;;;;;;;;5115072;28;20023;-55
2021/04/17 05:06:54;;;;;;;5.57;3.37;;;;;;;;;;5115069;28;20050;-55
2021/04/17 05:09:21;;;;;;;6.83;3.80;;;;;;;;;;5114887;28;20027;-56
2021/04/17 05:11:48;;;;;;;9.33;4.00;;;;;;;;;;5114786;28;20032;-56
2021/04/17 05:14:15;;;;;;;7.23;4.17;;;;;;;;;;5114925;28;20094;-55
2021/04/17 05:16:42;;;;;;;7.17;3.97;;;;;;;;;;5114828;28;20038;-56
2021/04/17 05:19:09;;;;;;;8.23;4.33;;;;;;;;;;5114697;28;20030;-55
2021/04/17 05:21:36;;;;;;;8.03;3.77;;;;;;;;;;5114523;28;20402;-54
2021/04/17 05:24:03;;;;;;;8.53;3.87;;;;;;;;;;5114020;28;20026;-55
2021/04/17 05:26:30;;;;;;;11.43;4.57;;;;;;;;;;5114614;28;20527;-56
2021/04/17 05:28:58;;;;;;;6.23;4.50;;;;;;;;;;5114214;28;20053;-56
2021/04/17 05:31:25;;;;;;;6.23;4.67;;;;;;;;;;5114251;28;20393;-55
2021/04/17 05:33:54;;;;;;;4.73;3.07;;;;;;;;;;5114250;28;20635;-56
2021/04/17 05:36:21;;;;;;;8.97;4.03;;;;;;;;;;5114670;28;20028;-56
2021/04/17 05:38:47;;;;;;;5.63;3.37;;;;;;;;;;5114392;28;20035;-55
2021/04/17 05:41:14;;;;;;;7.13;4.17;;;;;;;;;;5114221;28;20027;-55
2021/04/17 05:43:41;;;;;;;6.60;4.33;;;;;;;;;;5114239;28;20023;-56
2021/04/17 05:46:08;;;;;;;6.50;4.23;;;;;;;;;;5114132;28;20024;-55
2021/04/17 05:48:34;;;;;;;6.17;3.63;;;;;;;;;;5114091;28;20110;-55
2021/04/17 05:51:01;;;;;;;10.87;4.40;;;;;;;;;;5114080;28;20023;-55
2021/04/17 05:53:28;;;;;;;5.80;3.90;;;;;;;;;;5113933;28;20402;-55
2021/04/17 05:55:55;;;;;;;5.60;3.57;;;;;;;;;;5113992;28;20023;-55
2021/04/17 05:58:22;;;;;;;5.87;3.63;;;;;;;;;;5113515;28;20437;-55
2021/04/17 06:00:48;;;;;;;7.33;4.37;;;;;;;;;;5114003;28;20024;-56
2021/04/17 06:03:22;;;;;;;6.03;3.63;;;;;;;;;;5113789;28;20030;-55
2021/04/17 06:05:56;;;;;;;7.50;4.33;;;;;;;;;;5113876;28;20028;-55
2021/04/17 06:08:22;;;;;;;5.83;3.97;;;;;;;;;;5113696;28;20478;-55
2021/04/17 06:10:49;;;;;;;7.83;4.23;;;;;;;;;;5113769;28;20024;-55
2021/04/17 06:13:16;;;;;;;7.07;4.17;;;;;;;;;;5113529;28;20144;-55
2021/04/17 06:15:43;;;;;;;8.23;3.93;;;;;;;;;;5113850;28;20479;-55
2021/04/17 06:18:10;;;;;;;6.93;3.67;;;;;;;;;;5114124;28;20382;-55
2021/04/17 06:20:36;;;;;;;10.23;4.50;;;;;;;;;;5095326;28;20036;-55
2021/04/17 06:23:03;;;;;;;10.10;4.60;;;;;;;;;;5113526;28;20028;-56
2021/04/17 06:25:30;;;;;;;11.87;3.93;;;;;;;;;;5113486;28;20047;-55
2021/04/17 06:27:57;;;;;;;5.80;3.50;;;;;;;;;;5113851;28;20019;-55
2021/04/17 06:30:24;;;;;;;5.83;3.50;;;;;;;;;;5113406;28;20023;-55
2021/04/17 06:32:51;;;;;;;6.20;3.60;;;;;;;;;;5113294;28;20043;-55
2021/04/17 06:35:18;;;;;;;6.43;3.83;;;;;;;;;;5113448;28;20028;-55
2021/04/17 06:37:44;;;;;;;10.37;4.27;;;;;;;;;;5113317;28;20027;-55
2021/04/17 06:40:11;;;;;;;10.67;4.63;;;;;;;;;;5113462;28;20027;-55
2021/04/17 06:42:41;;;;;;;8.17;3.87;;;;;;;;;;5113327;28;20034;-56
2021/04/17 06:45:08;;;;;;;6.60;3.80;;;;;;;;;;5113372;28;20027;-55
2021/04/17 06:47:36;;;;;;;6.83;4.17;;;;;;;;;;5113299;28;20410;-55
2021/04/17 06:50:03;;;;;;;5.60;3.83;;;;;;;;;;5113325;28;20420;-55
2021/04/17 06:52:30;;;;;;;7.77;3.97;;;;;;;;;;5113137;28;20413;-56
2021/04/17 06:54:57;;;;;;;7.33;3.97;;;;;;;;;;5113153;28;20027;-55
2021/04/17 06:57:24;;;;;;;6.27;3.93;;;;;;;;;;5112678;28;20044;-55
2021/04/17 06:59:52;;;;;;;6.67;4.10;;;;;;;;;;5113233;28;20024;-55
2021/04/17 07:02:19;;;;;;;7.80;3.50;;;;;;;;;;5113068;28;20371;-55
2021/04/17 07:04:46;;;;;;;6.97;4.33;;;;;;;;;;5113188;28;20020;-55
2021/04/17 07:07:13;;;;;;;6.17;3.33;;;;;;;;;;5113056;28;20111;-55
2021/04/17 07:09:40;;;;;;;7.33;4.67;;;;;;;;;;5113151;28;20103;-55
2021/04/17 07:12:07;;;;;;;6.13;3.60;;;;;;;;;;5112933;28;20023;-55
2021/04/17 07:14:44;;;;;;;6.73;3.93;;;;;;;;;;5113034;28;20119;-55
2021/04/17 07:17:11;;;;;;;10.67;4.57;;;;;;;;;;5113044;28;20048;-55
2021/04/17 07:19:56;;;;;;;6.77;4.17;;;;;;;;;;5113053;28;20078;-55
2021/04/17 07:22:22;;;;;;;;;;;;;;;;;;5113275;28;20020;-55
2021/04/17 07:24:51;;;;;;;8.50;4.17;;;;;;;;;;5112951;28;19904;-55
2021/04/17 07:27:31;;;;;;;6.90;3.77;;;;;;;;;;5112910;28;20051;-55
2021/04/17 07:29:58;;;;;;;6.70;3.60;;;;;;;;;;5112876;28;20024;-55
2021/04/17 07:32:25;;;;;;;9.10;4.03;;;;;;;;;;5113012;28;20039;-55
2021/04/17 07:35:09;;;;;;;9.13;4.70;;;;;;;;;;5112835;28;20032;-55
2021/04/17 07:37:37;;;;;;;5.97;3.77;;;;;;;;;;5094550;28;20543;-55
2021/04/17 07:40:16;;;;;;;5.77;3.33;;;;;;;;;;5113176;28;20387;-55
2021/04/17 07:42:43;;;;;;;5.70;3.47;;;;;;;;;;5112697;28;20128;-55
2021/04/17 07:45:19;;;;;;;6.43;3.57;;;;;;;;;;5112790;28;20032;-55
2021/04/17 07:47:46;;;;;;;5.27;3.47;;;;;;;;;;5115825;28;20023;-55
2021/04/17 07:50:13;;;;;;;7.67;4.03;;;;;;;;;;5116422;28;20027;-55
2021/04/17 07:52:40;;;;;;;7.73;4.50;;;;;;;;;;5116307;28;20376;-55
2021/04/17 07:55:08;;;;;;;10.87;4.50;;;;;;;;;;5116241;28;20035;-55
2021/04/17 07:57:45;;;;;;;7.90;4.10;;;;;;;;;;5115844;27;20044;-55
2021/04/17 08:00:16;;;;;;;8.43;3.87;;;;;;;;;;5116269;28;20031;-55
2021/04/17 08:02:44;;;;;;;6.60;4.47;;;;;;;;;;5116211;28;20031;-55
2021/04/17 08:05:12;;;;;;;7.10;4.23;;;;;;;;;;5116303;28;20099;-55
2021/04/17 08:07:39;;;;;;;7.70;4.03;;;;;;;;;;5116097;28;20149;-55
2021/04/17 08:10:07;;;;;;;6.00;4.10;;;;;;;;;;5116126;28;20103;-55
2021/04/17 08:12:39;;;;;;;8.30;4.60;;;;;;;;;;5116168;28;20035;-55
2021/04/17 08:15:07;;;;;;;7.90;4.13;;;;;;;;;;5115979;28;20027;-55
2021/04/17 08:17:34;;;;;;;5.80;3.73;;;;;;;;;;5115940;28;20479;-55
2021/04/17 08:20:01;;;;;;;8.60;4.00;;;;;;;;;;5115902;28;20081;-55
2021/04/17 08:22:28;;;;;;;6.77;4.03;;;;;;;;;;5115810;28;20400;-55
2021/04/17 08:24:55;;;;;;;5.50;3.50;;;;;;;;;;5115754;28;20032;-55
2021/04/17 08:27:22;;;;;;;8.40;3.90;;;;;;;;;;5115846;28;20023;-55
2021/04/17 08:29:54;;;;;;;8.33;4.40;;;;;;;;;;5115755;28;20080;-55
2021/04/17 08:32:23;;;;;;;5.93;3.73;;;;;;;;;;5115522;28;20035;-55
2021/04/17 08:35:00;;;;;;;5.27;3.63;;;;;;;;;;5115673;28;20051;-55
2021/04/17 08:37:29;;;;;;;6.60;3.90;;;;;;;;;;5115496;28;20062;-55
2021/04/17 08:39:55;;;;;;;8.37;4.50;;;;;;;;;;5115521;28;20490;-55
2021/04/17 08:42:39;;;;;;;8.70;4.80;;;;;;;;;;5115460;28;20023;-55
2021/04/17 08:45:10;;;;;;;6.17;4.23;;;;;;;;;;5115968;28;20028;-55
2021/04/17 08:47:52;;;;;;;8.53;4.20;;;;;;;;;;5115164;28;20082;-55
2021/04/17 08:50:32;;;;;;;6.80;4.13;;;;;;;;;;5115303;28;20034;-55
2021/04/17 08:53:01;;;;;;;8.03;4.77;;;;;;;;;;5115345;28;20043;-55
2021/04/17 08:55:31;;;;;;;7.67;4.30;;;;;;;;;;5115186;28;20020;-55
2021/04/17 08:58:23;;;;;;;9.47;4.50;;;;;;;;;;5113566;27;20105;-55
2021/04/17 09:00:52;;;;;;;7.83;4.40;;;;;;;;;;5114968;28;20019;-55
2021/04/17 09:03:37;;;;;;;7.00;4.33;;;;;;;;;;5115029;28;20028;-55
2021/04/17 09:06:05;;;;;;;7.82;4.30;;;;;;;;;;5115039;28;20030;-55
2021/04/17 09:08:32;;;;;;;7.33;4.67;;;;;;;;;;5114919;28;20023;-55
2021/04/17 09:10:58;;;;;;;10.77;5.47;;;;;;;;;;5114894;28;20024;-55
2021/04/17 09:13:25;;;;;;;10.73;4.90;;;;;;;;;;5114778;28;20283;-54
2021/04/17 09:15:56;;;;;;;9.67;4.87;;;;;;;;;;5114926;28;20041;-55
2021/04/17 09:18:36;;;;;;;8.27;4.90;;;;;;;;;;5114611;28;20065;-55
2021/04/17 09:21:05;;;;;;;9.90;4.50;;;;;;;;;;5114759;28;20020;-55
2021/04/17 09:23:40;;;;;;;11.77;5.30;;;;;;;;;;5114597;28;20039;-55
2021/04/17 09:26:10;;;;;;;6.95;4.38;;;;;;;;;;5114692;28;20102;-55
2021/04/17 09:28:40;;;;;;;11.77;5.27;;;;;;;;;;5114585;28;20076;-55
2021/04/17 09:31:10;;;;;;;8.80;5.47;;;;;;;;;;5114852;28;20042;-55
2021/04/17 09:33:37;;;;;;;8.20;5.17;;;;;;;;;;5114382;28;20034;-55
2021/04/17 09:36:04;;;;;;;11.07;4.93;;;;;;;;;;5114463;28;20051;-55
2021/04/17 09:38:31;;;;;;;5.40;4.10;;;;;;;;;;5114392;28;20023;-55
2021/04/17 09:40:58;;;;;;;9.83;4.77;;;;;;;;;;5114233;28;20114;-55
2021/04/17 09:43:26;;;;;;;5.73;4.20;;;;;;;;;;5114222;28;20089;-55
2021/04/17 09:45:54;;;;;;;8.43;5.00;;;;;;;;;;5114438;28;20027;-55
2021/04/17 09:48:22;;;;;;;11.23;4.60;;;;;;;;;;5114177;28;20020;-55
2021/04/17 09:50:51;;;;;;;10.17;4.30;;;;;;;;;;5114182;28;20106;-55
2021/04/17 09:53:23;;;;;;;6.63;4.17;;;;;;;;;;5113956;28;20032;-55
2021/04/17 09:55:51;;;;;;;7.37;4.60;;;;;;;;;;5114021;28;20065;-55
2021/04/17 09:58:24;;;;;;;7.33;4.20;;;;;;;;;;5113378;28;20051;-55
2021/04/17 10:00:52;;;;;;;9.87;4.57;;;;;;;;;;5113842;28;20027;-55
2021/04/17 10:03:28;;;;;;;9.43;5.60;;;;;;;;;;5113880;28;20089;-55
2021/04/17 10:05:56;;;;;;;8.50;4.67;;;;;;;;;;5113983;28;20023;-55
2021/04/17 10:08:27;;;;;;;7.90;4.67;;;;;;;;;;5113894;28;20027;-55
2021/04/17 10:10:53;;;;;;;13.10;4.63;;;;;;;;;;5113470;28;20031;-55
2021/04/17 10:13:38;;;;;;;7.87;4.37;;;;;;;;;;5113611;28;20039;-55
2021/04/17 10:16:05;;;;;;;6.65;4.75;;;;;;;;;;5113716;28;20028;-55
2021/04/17 10:18:32;;;;;;;7.80;4.83;;;;;;;;;;5113741;28;20023;-55
2021/04/17 10:20:59;;;;;;;10.93;5.13;;;;;;;;;;5113686;28;20107;-55
2021/04/17 10:23:26;;;;;;;7.43;4.63;;;;;;;;;;5113493;28;20023;-55
2021/04/17 10:25:53;;;;;;;10.47;4.40;;;;;;;;;;5113562;28;20019;-55
2021/04/17 10:28:21;;;;;;;6.93;4.17;;;;;;;;;;5113542;28;20023;-55
2021/04/17 10:31:19;;;;;;;7.43;4.23;;;;;;;;;;5113580;28;20024;-55
2021/04/17 10:33:47;;;;;;;7.73;4.47;;;;;;;;;;5093278;28;20286;-55
2021/04/17 10:36:23;;;;;;;7.93;4.13;;;;;;;;;;5113602;28;20307;-55
2021/04/17 10:38:50;;;;;;;9.00;5.10;;;;;;;;;;5113489;28;20022;-55
2021/04/17 10:41:30;;;;;;;9.30;5.53;;;;;;;;;;5113290;28;20490;-55
2021/04/17 10:44:07;;;;;;;14.23;4.70;;;;;;;;;;5113348;28;20390;-55
2021/04/17 10:46:47;;;;;;;7.10;4.97;;;;;;;;;;5113418;28;20016;-55
2021/04/17 10:49:31;;;;;;;10.23;4.90;;;;;;;;;;5113296;28;20055;-55
2021/04/17 10:51:58;;;;;;;9.17;4.83;;;;;;;;;;5113137;28;20539;-55
2021/04/17 10:54:26;;;;;;;8.20;4.37;;;;;;;;;;5113491;28;20093;-55
2021/04/17 10:56:58;;;;;;;11.03;4.77;;;;;;;;;;5113210;28;20106;-55
2021/04/17 10:59:25;;;;;;;11.33;5.07;;;;;;;;;;5112825;28;20047;-55
2021/04/17 11:01:52;;;;;;;11.30;5.10;;;;;;;;;;5094910;28;20016;-55
2021/04/17 11:04:19;;;;;;;6.80;4.37;;;;;;;;;;5113116;28;20048;-55
2021/04/17 11:06:48;;;;;;;13.13;5.93;;;;;;;;;;5113134;28;20024;-55
2021/04/17 11:09:22;;;;;;;9.03;5.00;;;;;;;;;;5113117;28;20024;-55
2021/04/17 11:11:52;;;;;;;10.60;4.87;;;;;;;;;;5112909;28;20479;-55
2021/04/17 11:14:23;;;;;;;8.30;5.43;;;;;;;;;;5113085;28;20027;-55
2021/04/17 11:16:52;;;;;;;10.03;5.37;;;;;;;;;;5113399;28;20107;-55
2021/04/17 11:19:34;;;;;;;10.67;6.23;;;;;;;;;;5112971;28;20077;-55
2021/04/17 11:22:08;;;;;;;12.33;5.00;;;;;;;;;;5114974;28;20028;-55
2021/04/17 11:24:35;;;;;;;10.45;5.97;;;;;;;;;;5117053;28;20028;-55
2021/04/17 11:27:02;;;;;;;9.23;5.07;;;;;;;;;;5117056;28;20023;-55
2021/04/17 11:29:29;;;;;;;8.63;5.13;;;;;;;;;;5116862;28;20102;-55
2021/04/17 11:31:56;;;;;;;10.33;4.97;;;;;;;;;;5116776;28;20462;-55
2021/04/17 11:34:23;;;;;;;8.83;4.83;;;;;;;;;;5116743;28;20405;-55
2021/04/17 11:36:50;;;;;;;11.03;5.10;;;;;;;;;;5116739;28;20099;-55
2021/04/17 11:39:17;;;;;;;13.47;7.53;;;;;;;;;;5116698;28;20024;-55
2021/04/17 11:41:44;;;;;;;8.80;5.70;;;;;;;;;;5116668;28;20026;-55
2021/04/17 11:44:11;;;;;;;9.13;5.40;;;;;;;;;;5116595;28;20379;-54
2021/04/17 11:46:39;;;;;;;9.40;5.33;;;;;;;;;;5116733;28;20424;-55
2021/04/17 11:49:06;;;;;;;10.77;5.10;;;;;;;;;;5116854;28;20100;-55
2021/04/17 11:51:33;;;;;;;10.67;5.10;;;;;;;;;;5116344;28;20039;-55
2021/04/17 11:54:00;;;;;;;9.40;5.47;;;;;;;;;;5116391;28;20070;-55
2021/04/17 11:56:28;;;;;;;14.50;7.40;;;;;;;;;;5116401;28;20023;-55
2021/04/17 11:58:54;;;;;;;13.67;6.53;;;;;;;;;;5115857;27;20085;-55
2021/04/17 12:01:21;;;;;;;9.53;5.93;;;;;;;;;;5116207;28;20028;-55
2021/04/17 12:03:48;;;;;;;9.90;5.47;;;;;;;;;;5116206;28;20375;-55
2021/04/17 12:06:15;;;;;;;13.53;4.70;;;;;;;;;;5116239;28;20062;-55
2021/04/17 12:08:42;;;;;;;10.63;5.20;;;;;;;;;;5116224;28;20023;-55
2021/04/17 12:11:09;;;;;;;8.90;5.10;;;;;;;;;;5115997;28;20039;-55
2021/04/17 12:13:36;;;;;;;11.27;4.93;;;;;;;;;;5115981;28;20035;-55
2021/04/17 12:16:05;;;;;;;8.27;4.30;;;;;;;;;;5115973;28;20497;-55
2021/04/17 12:18:32;;;;;;;8.43;4.50;;;;;;;;;;5115979;28;20023;-55
2021/04/17 12:20:58;;;;;;;8.63;4.67;;;;;;;;;;5115874;28;20027;-55
2021/04/17 12:23:25;;;;;;;8.67;5.10;;;;;;;;;;5115823;28;20468;-54
2021/04/17 12:25:52;;;;;;;8.90;4.83;;;;;;;;;;5115815;28;20252;-54
2021/04/17 12:28:19;;;;;;;8.73;4.87;;;;;;;;;;5115810;28;20089;-54
2021/04/17 12:30:45;;;;;;;14.03;5.77;;;;;;;;;;5115756;28;20023;-55
2021/04/17 12:33:13;;;;;;;6.30;4.43;;;;;;;;;;5115456;28;20071;-55
2021/04/17 12:35:40;;;;;;;7.00;4.23;;;;;;;;;;5115970;28;20102;-54
2021/04/17 12:38:08;;;;;;;9.23;3.90;;;;;;;;;;5115541;28;20036;-54
2021/04/17 12:40:35;;;;;;;11.13;4.83;;;;;;;;;;5115854;28;20382;-54
2021/04/17 12:43:02;;;;;;;10.00;4.93;;;;;;;;;;5115473;28;20039;-54
2021/04/17 12:45:29;;;;;;;14.63;5.70;;;;;;;;;;5115491;28;20146;-54
2021/04/17 12:47:56;;;;;;;25.43;15.83;;;;;;;;;;5115359;28;20248;-54
2021/04/17 12:50:23;;;;;;;32.73;16.80;;;;;;;;;;5115335;28;20099;-55
2021/04/17 12:52:50;;;;;;;24.00;14.80;;;;;;;;;;5115232;28;20038;-55
2021/04/17 12:55:16;;;;;;;19.07;9.63;;;;;;;;;;5115261;28;20252;-55
2021/04/17 12:57:43;;;;;;;12.50;6.37;;;;;;;;;;5114665;27;20126;-55
2021/04/17 13:00:16;;;;;;;11.00;5.80;;;;;;;;;;5115074;28;20031;-55
2021/04/17 13:02:44;;;;;;;9.63;5.33;;;;;;;;;;5115028;28;20618;-54
2021/04/17 13:05:11;;;;;;;8.83;5.33;;;;;;;;;;5115006;28;20319;-54
2021/04/17 13:07:38;;;;;;;11.57;6.27;;;;;;;;;;5115000;28;20259;-55
2021/04/17 13:10:05;;;;;;;15.13;5.97;;;;;;;;;;5114976;28;20023;-55
2021/04/17 13:12:31;;;;;;;13.00;5.30;;;;;;;;;;5114717;28;20032;-54
2021/04/17 13:14:58;;;;;;;11.93;5.37;;;;;;;;;;5114978;28;20031;-55
2021/04/17 13:17:25;;;;;;;12.27;5.33;;;;;;;;;;5114869;28;20046;-55
2021/04/17 13:19:52;;;;;;;13.63;5.77;;;;;;;;;;5114768;28;20023;-55
2021/04/17 13:22:19;;;;;;;10.63;5.47;;;;;;;;;;5114612;28;20035;-55
2021/04/17 13:24:46;;;;;;;8.37;5.30;;;;;;;;;;5114900;28;20106;-54
2021/04/17 13:27:12;;;;;;;15.37;5.47;;;;;;;;;;5114674;28;20413;-54
2021/04/17 13:29:39;;;;;;;10.83;5.20;;;;;;;;;;5114543;28;20028;-53
2021/04/17 13:32:06;;;;;;;10.57;4.83;;;;;;;;;;5114371;28;20023;-54
2021/04/17 13:34:33;;;;;;;13.13;5.90;;;;;;;;;;5114471;28;20036;-54
2021/04/17 13:37:00;;;;;;;14.60;6.53;;;;;;;;;;5114373;28;20387;-54
2021/04/17 13:39:26;;;;;;;15.47;7.23;;;;;;;;;;5114306;28;20509;-54
2021/04/17 13:41:53;;;;;;;12.40;6.93;;;;;;;;;;5114278;28;20390;-54
2021/04/17 13:44:20;;;;;;;10.90;7.00;;;;;;;;;;5113811;28;20613;-54
2021/04/17 13:46:47;;;;;;;11.97;6.93;;;;;;;;;;5114328;28;20027;-54
2021/04/17 13:49:14;;;;;;;12.60;6.10;;;;;;;;;;5114260;28;20068;-55
2021/04/17 13:51:40;;;;;;;12.37;6.40;;;;;;;;;;5113968;28;20434;-55
2021/04/17 13:54:07;;;;;;;11.50;5.83;;;;;;;;;;5113782;28;20130;-56
2021/04/17 13:56:34;;;;;;;11.10;5.67;;;;;;;;;;5113828;28;20034;-55
2021/04/17 13:59:07;;;;;;;17.03;7.07;;;;;;;;;;5113285;27;20043;-55
2021/04/17 14:01:34;;;;;;;13.17;7.53;;;;;;;;;;5113890;28;20028;-55
2021/04/17 14:04:01;;;;;;;13.27;6.80;;;;;;;;;;5113977;28;20027;-55
2021/04/17 14:06:28;;;;;;;12.90;7.67;;;;;;;;;;5113822;28;20123;-55
2021/04/17 14:08:54;;;;;;;13.20;6.90;;;;;;;;;;5113862;28;20027;-55
2021/04/17 14:11:22;;;;;;;18.63;8.13;;;;;;;;;;5113733;28;20080;-55
2021/04/17 14:13:49;;;;;;;14.53;8.00;;;;;;;;;;5113658;28;20047;-55
2021/04/17 14:16:16;;;;;;;13.10;7.07;;;;;;;;;;5113738;28;20027;-55
2021/04/17 14:18:43;;;;;;;13.80;6.87;;;;;;;;;;5113805;28;20500;-56
2021/04/17 14:21:13;;;;;;;15.13;7.40;;;;;;;;;;5113699;28;20020;-56
2021/04/17 14:23:40;;;;;;;18.07;6.67;;;;;;;;;;5113601;28;20480;-55
2021/04/17 14:26:07;;;;;;;13.80;7.33;;;;;;;;;;5113652;28;20081;-56
2021/04/17 14:28:34;;;;;;;14.20;7.20;;;;;;;;;;5113550;28;20027;-56
2021/04/17 14:31:02;;;;;;;11.30;6.03;;;;;;;;;;5113447;28;20019;-56
2021/04/17 14:33:28;;;;;;;19.80;7.03;;;;;;;;;;5113421;28;20031;-56
2021/04/17 14:35:55;;;;;;;9.80;5.73;;;;;;;;;;5113430;28;20099;-55
2021/04/17 14:38:22;;;;;;;11.00;5.73;;;;;;;;;;5113498;28;20016;-55
2021/04/17 14:40:49;;;;;;;8.27;5.23;;;;;;;;;;5113617;28;20020;-55
2021/04/17 14:43:16;;;;;;;19.23;5.83;;;;;;;;;;5113398;28;20069;-57
2021/04/17 14:45:42;;;;;;;13.20;5.67;;;;;;;;;;5113290;28;20428;-57